Terminal Aerodrome Forecast
Issued by NWS

Home | Current Version | Previous Version | Text Only | Print | Product List | Glossary On
Versions: 1 2 3 4 5 6 7 8 9 10 11 12 13 14 15 16 17 18 19 20
199
FTUS42 KFFC 191729
TAFFTY
TAF
KFTY 191729Z 1918/2018 32012G18KT P6SM SKC
      TEMPO 1920/1923 BKN035
     FM200000 34009KT P6SM SKC
     FM200600 34003KT P6SM SKC
     FM201400 05003KT P6SM SKC
     FM201700 14004KT P6SM SKC=

USA.gov is the U.S. government's official web portal to all federal, state and local government web resources and services.